sensor_id;sensor_type;location;lat;lon;timestamp;pressure;altitude;pressure_sealevel;temperature;humidity
55289;BME280;41154;45.394;5.734;2023-06-22T00:01:19;96816.69;;;19.50;100.00
55289;BME280;41154;45.394;5.734;2023-06-22T00:03:45;96809.00;;;19.43;100.00
55289;BME280;41154;45.394;5.734;2023-06-22T00:06:11;96798.41;;;19.73;100.00
55289;BME280;41154;45.394;5.734;2023-06-22T00:08:37;96785.78;;;19.77;100.00
55289;BME280;41154;45.394;5.734;2023-06-22T00:11:03;96787.09;;;19.48;100.00
55289;BME280;41154;45.394;5.734;2023-06-22T00:13:28;96784.63;;;19.07;100.00
55289;BME280;41154;45.394;5.734;2023-06-22T00:15:54;96786.56;;;19.37;100.00
55289;BME280;41154;45.394;5.734;2023-06-22T00:18:20;96776.84;;;19.22;100.00
55289;BME280;41154;45.394;5.734;2023-06-22T00:20:46;96785.63;;;19.19;100.00
55289;BME280;41154;45.394;5.734;2023-06-22T00:23:12;96786.31;;;19.25;100.00
55289;BME280;41154;45.394;5.734;2023-06-22T00:25:42;96780.28;;;19.06;100.00
55289;BME280;41154;45.394;5.734;2023-06-22T00:28:08;96783.38;;;19.13;100.00
55289;BME280;41154;45.394;5.734;2023-06-22T00:30:34;96781.66;;;18.94;100.00
55289;BME280;41154;45.394;5.734;2023-06-22T00:33:01;96785.69;;;18.97;100.00
55289;BME280;41154;45.394;5.734;2023-06-22T00:35:27;96787.13;;;18.80;100.00
55289;BME280;41154;45.394;5.734;2023-06-22T00:37:59;96780.31;;;18.69;100.00
55289;BME280;41154;45.394;5.734;2023-06-22T00:40:31;96774.84;;;19.06;100.00
55289;BME280;41154;45.394;5.734;2023-06-22T00:42:58;96779.72;;;18.72;100.00
55289;BME280;41154;45.394;5.734;2023-06-22T00:45:24;96792.28;;;18.68;100.00
55289;BME280;41154;45.394;5.734;2023-06-22T00:47:57;96783.97;;;18.64;100.00
55289;BME280;41154;45.394;5.734;2023-06-22T00:50:26;96776.88;;;18.77;100.00
55289;BME280;41154;45.394;5.734;2023-06-22T00:52:54;96784.41;;;18.80;100.00
55289;BME280;41154;45.394;5.734;2023-06-22T00:55:24;96784.34;;;18.72;100.00
55289;BME280;41154;45.394;5.734;2023-06-22T00:57:52;96788.25;;;19.02;100.00
55289;BME280;41154;45.394;5.734;2023-06-22T01:00:23;96779.16;;;18.84;100.00
55289;BME280;41154;45.394;5.734;2023-06-22T01:02:52;96778.91;;;18.72;100.00
55289;BME280;41154;45.394;5.734;2023-06-22T01:05:22;96766.50;;;18.57;100.00
55289;BME280;41154;45.394;5.734;2023-06-22T01:13:22;96736.78;;;18.38;100.00
55289;BME280;41154;45.394;5.734;2023-06-22T01:15:55;96742.22;;;18.38;100.00
55289;BME280;41154;45.394;5.734;2023-06-22T01:18:23;96717.38;;;18.08;100.00
55289;BME280;41154;45.394;5.734;2023-06-22T01:20:56;96705.81;;;18.39;100.00
55289;BME280;41154;45.394;5.734;2023-06-22T01:23:33;96689.44;;;18.30;100.00
55289;BME280;41154;45.394;5.734;2023-06-22T01:28:50;96675.69;;;18.26;100.00
55289;BME280;41154;45.394;5.734;2023-06-22T01:31:18;96693.00;;;18.17;100.00
55289;BME280;41154;45.394;5.734;2023-06-22T01:33:48;96704.00;;;17.98;100.00
55289;BME280;41154;45.394;5.734;2023-06-22T01:36:16;96708.28;;;18.26;100.00
55289;BME280;41154;45.394;5.734;2023-06-22T01:38:46;96716.25;;;18.45;100.00
55289;BME280;41154;45.394;5.734;2023-06-22T01:41:13;96721.22;;;18.52;100.00
55289;BME280;41154;45.394;5.734;2023-06-22T01:43:39;96726.66;;;18.52;100.00
55289;BME280;41154;45.394;5.734;2023-06-22T01:46:05;96731.63;;;18.50;100.00
55289;BME280;41154;45.394;5.734;2023-06-22T01:48:31;96725.63;;;18.39;100.00
55289;BME280;41154;45.394;5.734;2023-06-22T01:50:59;96721.19;;;18.43;100.00
55289;BME280;41154;45.394;5.734;2023-06-22T01:53:27;96724.22;;;18.42;100.00
55289;BME280;41154;45.394;5.734;2023-06-22T01:55:53;96738.94;;;18.27;100.00
55289;BME280;41154;45.394;5.734;2023-06-22T01:58:21;96736.53;;;18.25;100.00
55289;BME280;41154;45.394;5.734;2023-06-22T02:00:55;96754.31;;;18.31;100.00
55289;BME280;41154;45.394;5.734;2023-06-22T02:03:27;96750.66;;;18.36;100.00
55289;BME280;41154;45.394;5.734;2023-06-22T02:06:01;96759.56;;;18.28;100.00
55289;BME280;41154;45.394;5.734;2023-06-22T02:08:31;96750.56;;;18.64;100.00
55289;BME280;41154;45.394;5.734;2023-06-22T02:10:59;96752.19;;;18.88;100.00
55289;BME280;41154;45.394;5.734;2023-06-22T02:13:26;96756.91;;;18.82;100.00
55289;BME280;41154;45.394;5.734;2023-06-22T02:15:53;96740.13;;;18.80;100.00
55289;BME280;41154;45.394;5.734;2023-06-22T02:18:19;96752.69;;;18.67;100.00
55289;BME280;41154;45.394;5.734;2023-06-22T02:20:46;96746.50;;;18.16;100.00
55289;BME280;41154;45.394;5.734;2023-06-22T02:23:11;96752.22;;;18.14;100.00
55289;BME280;41154;45.394;5.734;2023-06-22T02:25:37;96757.53;;;18.20;100.00
55289;BME280;41154;45.394;5.734;2023-06-22T02:28:04;96754.16;;;18.14;100.00
55289;BME280;41154;45.394;5.734;2023-06-22T02:30:29;96749.81;;;18.13;100.00
55289;BME280;41154;45.394;5.734;2023-06-22T02:32:55;96743.28;;;18.14;100.00
55289;BME280;41154;45.394;5.734;2023-06-22T02:35:26;96739.34;;;18.20;100.00
55289;BME280;41154;45.394;5.734;2023-06-22T02:37:52;96745.13;;;18.05;100.00
55289;BME280;41154;45.394;5.734;2023-06-22T02:40:17;96750.16;;;17.98;100.00
55289;BME280;41154;45.394;5.734;2023-06-22T02:42:43;96749.16;;;17.79;100.00
55289;BME280;41154;45.394;5.734;2023-06-22T02:45:09;96751.53;;;17.95;100.00
55289;BME280;41154;45.394;5.734;2023-06-22T02:47:35;96750.53;;;17.77;100.00
55289;BME280;41154;45.394;5.734;2023-06-22T02:50:01;96747.22;;;17.80;100.00
55289;BME280;41154;45.394;5.734;2023-06-22T02:52:30;96758.44;;;18.15;100.00
55289;BME280;41154;45.394;5.734;2023-06-22T02:54:56;96756.88;;;17.86;100.00
55289;BME280;41154;45.394;5.734;2023-06-22T02:57:22;96738.31;;;17.66;100.00
55289;BME280;41154;45.394;5.734;2023-06-22T02:59:47;96747.34;;;17.75;100.00
55289;BME280;41154;45.394;5.734;2023-06-22T03:02:13;96738.09;;;17.76;100.00
55289;BME280;41154;45.394;5.734;2023-06-22T03:04:42;96757.00;;;17.81;100.00
55289;BME280;41154;45.394;5.734;2023-06-22T03:07:08;96759.19;;;17.79;100.00
55289;BME280;41154;45.394;5.734;2023-06-22T03:09:34;96769.03;;;17.75;100.00
55289;BME280;41154;45.394;5.734;2023-06-22T03:12:00;96774.69;;;17.92;100.00
55289;BME280;41154;45.394;5.734;2023-06-22T03:14:35;96785.31;;;18.03;100.00
55289;BME280;41154;45.394;5.734;2023-06-22T03:17:01;96793.25;;;17.85;100.00
55289;BME280;41154;45.394;5.734;2023-06-22T03:19:29;96810.66;;;17.98;100.00
55289;BME280;41154;45.394;5.734;2023-06-22T03:21:59;96818.41;;;18.05;100.00
55289;BME280;41154;45.394;5.734;2023-06-22T03:24:25;96817.50;;;18.60;100.00
55289;BME280;41154;45.394;5.734;2023-06-22T03:26:54;96812.31;;;18.72;100.00
55289;BME280;41154;45.394;5.734;2023-06-22T03:29:20;96825.50;;;18.28;100.00
55289;BME280;41154;45.394;5.734;2023-06-22T03:31:46;96831.34;;;18.22;100.00
55289;BME280;41154;45.394;5.734;2023-06-22T03:34:11;96830.16;;;18.14;100.00
55289;BME280;41154;45.394;5.734;2023-06-22T03:36:37;96835.78;;;18.18;100.00
55289;BME280;41154;45.394;5.734;2023-06-22T03:39:03;96852.19;;;17.99;100.00
55289;BME280;41154;45.394;5.734;2023-06-22T03:41:28;96856.47;;;18.00;100.00
55289;BME280;41154;45.394;5.734;2023-06-22T03:43:55;96861.00;;;18.18;100.00
55289;BME280;41154;45.394;5.734;2023-06-22T03:46:21;96877.28;;;18.18;100.00
55289;BME280;41154;45.394;5.734;2023-06-22T03:48:47;96887.06;;;18.33;100.00
55289;BME280;41154;45.394;5.734;2023-06-22T03:51:12;96909.38;;;18.30;100.00
55289;BME280;41154;45.394;5.734;2023-06-22T03:53:38;96935.50;;;18.12;100.00
55289;BME280;41154;45.394;5.734;2023-06-22T03:56:05;96941.34;;;18.33;100.00
55289;BME280;41154;45.394;5.734;2023-06-22T03:58:32;96938.81;;;18.78;100.00
55289;BME280;41154;45.394;5.734;2023-06-22T04:00:59;96956.03;;;18.74;100.00
55289;BME280;41154;45.394;5.734;2023-06-22T04:03:25;96957.84;;;18.37;100.00
55289;BME280;41154;45.394;5.734;2023-06-22T04:05:51;96970.53;;;18.55;100.00
55289;BME280;41154;45.394;5.734;2023-06-22T04:08:17;96982.09;;;18.89;100.00
55289;BME280;41154;45.394;5.734;2023-06-22T04:10:43;96980.34;;;18.79;100.00
55289;BME280;41154;45.394;5.734;2023-06-22T04:13:09;96970.31;;;18.52;100.00
55289;BME280;41154;45.394;5.734;2023-06-22T04:15:35;96989.50;;;18.27;100.00
55289;BME280;41154;45.394;5.734;2023-06-22T04:18:01;96998.47;;;18.28;100.00
55289;BME280;41154;45.394;5.734;2023-06-22T04:20:27;96988.63;;;18.60;100.00
55289;BME280;41154;45.394;5.734;2023-06-22T04:22:53;96996.09;;;18.40;100.00
55289;BME280;41154;45.394;5.734;2023-06-22T04:25:19;96974.13;;;18.37;100.00
55289;BME280;41154;45.394;5.734;2023-06-22T04:27:46;97007.03;;;18.49;100.00
55289;BME280;41154;45.394;5.734;2023-06-22T04:30:12;97022.53;;;18.35;100.00
55289;BME280;41154;45.394;5.734;2023-06-22T04:32:40;97025.88;;;18.59;100.00
55289;BME280;41154;45.394;5.734;2023-06-22T04:35:06;97021.22;;;18.46;100.00
55289;BME280;41154;45.394;5.734;2023-06-22T04:37:33;97003.13;;;18.55;100.00
55289;BME280;41154;45.394;5.734;2023-06-22T04:39:59;96993.66;;;18.80;100.00
55289;BME280;41154;45.394;5.734;2023-06-22T04:42:28;96974.63;;;18.80;100.00
55289;BME280;41154;45.394;5.734;2023-06-22T04:44:55;96962.47;;;18.78;100.00
55289;BME280;41154;45.394;5.734;2023-06-22T04:47:21;96975.75;;;18.65;100.00
55289;BME280;41154;45.394;5.734;2023-06-22T04:49:48;96957.13;;;18.59;100.00
55289;BME280;41154;45.394;5.734;2023-06-22T04:52:14;96929.84;;;18.78;100.00
55289;BME280;41154;45.394;5.734;2023-06-22T04:54:43;96893.69;;;18.91;100.00
55289;BME280;41154;45.394;5.734;2023-06-22T04:57:16;96859.13;;;19.06;100.00
55289;BME280;41154;45.394;5.734;2023-06-22T04:59:42;96805.72;;;19.32;100.00
55289;BME280;41154;45.394;5.734;2023-06-22T05:02:08;96820.19;;;20.22;100.00
55289;BME280;41154;45.394;5.734;2023-06-22T05:04:34;96829.69;;;21.38;100.00
55289;BME280;41154;45.394;5.734;2023-06-22T05:07:04;96817.94;;;22.32;100.00
55289;BME280;41154;45.394;5.734;2023-06-22T05:09:30;96836.84;;;22.88;94.23
55289;BME280;41154;45.394;5.734;2023-06-22T05:11:55;96834.38;;;22.95;98.35
55289;BME280;41154;45.394;5.734;2023-06-22T05:14:27;96846.66;;;23.10;95.00
55289;BME280;41154;45.394;5.734;2023-06-22T05:16:54;96850.63;;;22.92;94.46
55289;BME280;41154;45.394;5.734;2023-06-22T05:19:24;96835.50;;;23.49;85.16
55289;BME280;41154;45.394;5.734;2023-06-22T05:21:50;96854.44;;;23.54;83.59
55289;BME280;41154;45.394;5.734;2023-06-22T05:24:16;96844.91;;;23.73;83.78
55289;BME280;41154;45.394;5.734;2023-06-22T05:26:41;96862.94;;;23.74;88.46
55289;BME280;41154;45.394;5.734;2023-06-22T05:29:07;96866.72;;;23.48;97.86
55289;BME280;41154;45.394;5.734;2023-06-22T05:31:34;96870.44;;;22.89;100.00
55289;BME280;41154;45.394;5.734;2023-06-22T05:34:00;96877.31;;;22.74;100.00
55289;BME280;41154;45.394;5.734;2023-06-22T05:36:26;96889.03;;;22.53;100.00
55289;BME280;41154;45.394;5.734;2023-06-22T05:38:52;96879.22;;;22.52;100.00
55289;BME280;41154;45.394;5.734;2023-06-22T05:41:18;96891.63;;;22.50;100.00
55289;BME280;41154;45.394;5.734;2023-06-22T05:43:46;96879.47;;;22.30;100.00
55289;BME280;41154;45.394;5.734;2023-06-22T05:46:11;96901.72;;;22.19;100.00
55289;BME280;41154;45.394;5.734;2023-06-22T05:48:37;96913.44;;;22.20;100.00
55289;BME280;41154;45.394;5.734;2023-06-22T05:51:03;96917.91;;;22.24;100.00
55289;BME280;41154;45.394;5.734;2023-06-22T05:53:28;96918.38;;;22.35;100.00
55289;BME280;41154;45.394;5.734;2023-06-22T05:55:54;96905.44;;;22.53;100.00
55289;BME280;41154;45.394;5.734;2023-06-22T05:58:20;96904.25;;;22.84;100.00
55289;BME280;41154;45.394;5.734;2023-06-22T06:00:45;96923.25;;;23.10;100.00
55289;BME280;41154;45.394;5.734;2023-06-22T06:03:12;96940.19;;;23.04;100.00
55289;BME280;41154;45.394;5.734;2023-06-22T06:05:38;96911.63;;;22.33;100.00
55289;BME280;41154;45.394;5.734;2023-06-22T06:08:05;96889.78;;;22.33;100.00
55289;BME280;41154;45.394;5.734;2023-06-22T06:10:32;96866.47;;;22.26;100.00
55289;BME280;41154;45.394;5.734;2023-06-22T06:12:59;96883.94;;;22.43;100.00
55289;BME280;41154;45.394;5.734;2023-06-22T06:15:27;96870.19;;;22.31;100.00
55289;BME280;41154;45.394;5.734;2023-06-22T06:17:53;96861.66;;;22.32;100.00
55289;BME280;41154;45.394;5.734;2023-06-22T06:20:20;96850.19;;;22.39;100.00
55289;BME280;41154;45.394;5.734;2023-06-22T06:22:47;96856.41;;;22.18;100.00
55289;BME280;41154;45.394;5.734;2023-06-22T06:25:13;96860.97;;;22.44;100.00
55289;BME280;41154;45.394;5.734;2023-06-22T06:27:45;96863.56;;;22.61;100.00
55289;BME280;41154;45.394;5.734;2023-06-22T06:30:12;96854.09;;;22.38;100.00
55289;BME280;41154;45.394;5.734;2023-06-22T06:32:39;96840.44;;;22.59;100.00
55289;BME280;41154;45.394;5.734;2023-06-22T06:35:06;96849.63;;;22.96;100.00
55289;BME280;41154;45.394;5.734;2023-06-22T06:37:35;96843.63;;;23.03;100.00
55289;BME280;41154;45.394;5.734;2023-06-22T06:40:01;96827.69;;;22.84;100.00
55289;BME280;41154;45.394;5.734;2023-06-22T06:42:27;96832.63;;;24.16;100.00
55289;BME280;41154;45.394;5.734;2023-06-22T06:44:53;96827.16;;;23.91;100.00
55289;BME280;41154;45.394;5.734;2023-06-22T06:47:20;96824.41;;;25.82;100.00
55289;BME280;41154;45.394;5.734;2023-06-22T06:49:46;96834.56;;;24.93;100.00
55289;BME280;41154;45.394;5.734;2023-06-22T06:52:12;96835.03;;;24.05;100.00
55289;BME280;41154;45.394;5.734;2023-06-22T06:54:37;96839.00;;;23.83;100.00
55289;BME280;41154;45.394;5.734;2023-06-22T06:57:03;96818.00;;;24.12;100.00
55289;BME280;41154;45.394;5.734;2023-06-22T06:59:29;96807.47;;;24.51;100.00
55289;BME280;41154;45.394;5.734;2023-06-22T07:01:55;96789.38;;;23.39;100.00
55289;BME280;41154;45.394;5.734;2023-06-22T07:04:21;96801.78;;;23.03;100.00
55289;BME280;41154;45.394;5.734;2023-06-22T07:06:48;96767.94;;;22.53;100.00
55289;BME280;41154;45.394;5.734;2023-06-22T07:09:14;96780.09;;;23.77;100.00
55289;BME280;41154;45.394;5.734;2023-06-22T07:11:40;96779.75;;;23.20;100.00
55289;BME280;41154;45.394;5.734;2023-06-22T07:14:05;96765.34;;;24.31;85.87
55289;BME280;41154;45.394;5.734;2023-06-22T07:16:31;96710.19;;;24.73;74.42
55289;BME280;41154;45.394;5.734;2023-06-22T07:18:58;96731.81;;;25.51;76.84
55289;BME280;41154;45.394;5.734;2023-06-22T07:21:23;96702.03;;;25.84;66.73
55289;BME280;41154;45.394;5.734;2023-06-22T07:23:49;96705.72;;;26.08;62.74
55289;BME280;41154;45.394;5.734;2023-06-22T07:26:15;96703.44;;;26.10;61.19
55289;BME280;41154;45.394;5.734;2023-06-22T07:28:42;96688.19;;;26.32;58.95
55289;BME280;41154;45.394;5.734;2023-06-22T07:31:07;96687.13;;;26.76;54.36
55289;BME280;41154;45.394;5.734;2023-06-22T07:33:33;96678.00;;;26.72;53.51
55289;BME280;41154;45.394;5.734;2023-06-22T07:35:59;96697.56;;;26.67;52.68
55289;BME280;41154;45.394;5.734;2023-06-22T07:38:24;96703.47;;;26.69;53.13
55289;BME280;41154;45.394;5.734;2023-06-22T07:40:50;96736.44;;;26.85;53.57
55289;BME280;41154;45.394;5.734;2023-06-22T07:43:19;96711.47;;;26.97;51.41
55289;BME280;41154;45.394;5.734;2023-06-22T07:45:49;96744.72;;;27.08;49.62
55289;BME280;41154;45.394;5.734;2023-06-22T07:48:20;96725.06;;;26.67;50.83
55289;BME280;41154;45.394;5.734;2023-06-22T07:50:46;96585.31;;;26.76;50.42
55289;BME280;41154;45.394;5.734;2023-06-22T07:53:12;96616.19;;;26.46;53.07
55289;BME280;41154;45.394;5.734;2023-06-22T07:55:37;96627.53;;;26.45;52.21
55289;BME280;41154;45.394;5.734;2023-06-22T07:58:03;96694.41;;;26.49;52.24
55289;BME280;41154;45.394;5.734;2023-06-22T08:00:29;96729.88;;;26.54;52.70
55289;BME280;41154;45.394;5.734;2023-06-22T08:02:54;96718.88;;;26.54;52.73
55289;BME280;41154;45.394;5.734;2023-06-22T08:05:20;96724.84;;;26.21;54.23
55289;BME280;41154;45.394;5.734;2023-06-22T08:07:46;96692.97;;;26.00;55.07
55289;BME280;41154;45.394;5.734;2023-06-22T08:10:13;96690.00;;;25.73;55.42
55289;BME280;41154;45.394;5.734;2023-06-22T08:12:42;96682.66;;;25.61;57.50
55289;BME280;41154;45.394;5.734;2023-06-22T08:15:08;96664.91;;;25.75;56.58
55289;BME280;41154;45.394;5.734;2023-06-22T08:17:36;96670.91;;;25.96;55.57
55289;BME280;41154;45.394;5.734;2023-06-22T08:20:03;96703.06;;;25.96;56.12
55289;BME280;41154;45.394;5.734;2023-06-22T08:22:35;96797.06;;;25.86;56.68
55289;BME280;41154;45.394;5.734;2023-06-22T08:25:02;96815.22;;;24.73;69.65
55289;BME280;41154;45.394;5.734;2023-06-22T08:27:30;96841.97;;;23.90;78.10
55289;BME280;41154;45.394;5.734;2023-06-22T08:29:58;96865.09;;;23.68;83.15
55289;BME280;41154;45.394;5.734;2023-06-22T08:32:28;96849.16;;;23.37;86.03
55289;BME280;41154;45.394;5.734;2023-06-22T08:34:54;96865.63;;;23.28;89.31
55289;BME280;41154;45.394;5.734;2023-06-22T08:37:21;96881.72;;;22.87;95.38
55289;BME280;41154;45.394;5.734;2023-06-22T08:39:49;96887.59;;;22.77;96.94
55289;BME280;41154;45.394;5.734;2023-06-22T08:42:15;96875.00;;;22.34;100.00
55289;BME280;41154;45.394;5.734;2023-06-22T08:44:41;96910.19;;;22.35;100.00
55289;BME280;41154;45.394;5.734;2023-06-22T08:47:06;96891.25;;;22.21;100.00
55289;BME280;41154;45.394;5.734;2023-06-22T08:49:32;96924.63;;;21.88;100.00
55289;BME280;41154;45.394;5.734;2023-06-22T08:51:58;96911.03;;;21.62;100.00
55289;BME280;41154;45.394;5.734;2023-06-22T08:54:24;96917.16;;;21.07;100.00
55289;BME280;41154;45.394;5.734;2023-06-22T08:56:49;96896.94;;;20.73;100.00
55289;BME280;41154;45.394;5.734;2023-06-22T08:59:15;96933.41;;;20.63;100.00
55289;BME280;41154;45.394;5.734;2023-06-22T09:01:41;96942.72;;;20.62;100.00
55289;BME280;41154;45.394;5.734;2023-06-22T09:04:11;96938.44;;;20.78;100.00
55289;BME280;41154;45.394;5.734;2023-06-22T09:06:37;96933.38;;;21.56;100.00
55289;BME280;41154;45.394;5.734;2023-06-22T09:09:12;96881.34;;;21.61;100.00
55289;BME280;41154;45.394;5.734;2023-06-22T09:11:38;96871.91;;;21.49;100.00
55289;BME280;41154;45.394;5.734;2023-06-22T09:14:03;96886.81;;;21.43;100.00
55289;BME280;41154;45.394;5.734;2023-06-22T09:16:30;96920.53;;;21.39;100.00
55289;BME280;41154;45.394;5.734;2023-06-22T09:18:56;96940.28;;;21.53;100.00
55289;BME280;41154;45.394;5.734;2023-06-22T09:21:21;96930.56;;;21.90;100.00
55289;BME280;41154;45.394;5.734;2023-06-22T09:23:47;96909.19;;;22.40;100.00
55289;BME280;41154;45.394;5.734;2023-06-22T09:26:19;96904.00;;;22.08;100.00
55289;BME280;41154;45.394;5.734;2023-06-22T09:28:45;96899.66;;;22.07;100.00
55289;BME280;41154;45.394;5.734;2023-06-22T09:31:11;96901.00;;;22.40;100.00
55289;BME280;41154;45.394;5.734;2023-06-22T09:33:37;96919.28;;;22.10;100.00
55289;BME280;41154;45.394;5.734;2023-06-22T09:36:06;96919.88;;;22.15;100.00
55289;BME280;41154;45.394;5.734;2023-06-22T09:38:36;96904.59;;;22.32;100.00
55289;BME280;41154;45.394;5.734;2023-06-22T09:41:02;96895.97;;;22.51;100.00
55289;BME280;41154;45.394;5.734;2023-06-22T09:43:28;96881.72;;;22.66;100.00
55289;BME280;41154;45.394;5.734;2023-06-22T09:45:54;96863.56;;;22.61;100.00
55289;BME280;41154;45.394;5.734;2023-06-22T09:48:19;96868.28;;;22.52;100.00
55289;BME280;41154;45.394;5.734;2023-06-22T09:50:45;96868.53;;;22.30;100.00
55289;BME280;41154;45.394;5.734;2023-06-22T09:53:11;96876.06;;;22.03;100.00
55289;BME280;41154;45.394;5.734;2023-06-22T09:55:36;96888.47;;;21.92;100.00
55289;BME280;41154;45.394;5.734;2023-06-22T09:58:02;96890.06;;;22.40;100.00
55289;BME280;41154;45.394;5.734;2023-06-22T10:00:28;96902.59;;;22.71;100.00
55289;BME280;41154;45.394;5.734;2023-06-22T10:02:54;96911.25;;;23.24;100.00
55289;BME280;41154;45.394;5.734;2023-06-22T10:05:21;96906.94;;;23.56;100.00
55289;BME280;41154;45.394;5.734;2023-06-22T10:07:47;96897.44;;;23.54;100.00
55289;BME280;41154;45.394;5.734;2023-06-22T10:10:13;96880.66;;;23.43;100.00
55289;BME280;41154;45.394;5.734;2023-06-22T10:12:46;96851.19;;;23.06;100.00
55289;BME280;41154;45.394;5.734;2023-06-22T10:15:14;96861.50;;;23.01;100.00
55289;BME280;41154;45.394;5.734;2023-06-22T10:17:40;96863.63;;;22.95;100.00
55289;BME280;41154;45.394;5.734;2023-06-22T10:20:06;96853.84;;;23.15;100.00
55289;BME280;41154;45.394;5.734;2023-06-22T10:22:44;96855.91;;;23.97;89.65
55289;BME280;41154;45.394;5.734;2023-06-22T10:25:11;96847.53;;;24.80;76.12
55289;BME280;41154;45.394;5.734;2023-06-22T10:27:38;96882.06;;;24.81;84.80
55289;BME280;41154;45.394;5.734;2023-06-22T10:30:08;96876.25;;;24.70;83.67
55289;BME280;41154;45.394;5.734;2023-06-22T10:32:34;96883.09;;;24.02;97.39
55289;BME280;41154;45.394;5.734;2023-06-22T10:35:00;96880.91;;;23.96;95.88
55289;BME280;41154;45.394;5.734;2023-06-22T10:37:26;96882.63;;;24.00;99.32
55289;BME280;41154;45.394;5.734;2023-06-22T10:39:51;96874.66;;;23.95;96.76
55289;BME280;41154;45.394;5.734;2023-06-22T10:42:17;96863.44;;;23.88;96.36
55289;BME280;41154;45.394;5.734;2023-06-22T10:44:43;96897.16;;;24.26;97.90
55289;BME280;41154;45.394;5.734;2023-06-22T10:47:10;96902.50;;;24.10;96.36
55289;BME280;41154;45.394;5.734;2023-06-22T10:49:39;96941.81;;;24.38;98.94
55289;BME280;41154;45.394;5.734;2023-06-22T10:52:06;96942.28;;;24.28;94.63
55289;BME280;41154;45.394;5.734;2023-06-22T10:54:33;96963.72;;;24.26;95.96
55289;BME280;41154;45.394;5.734;2023-06-22T10:56:59;96969.47;;;24.46;93.37
55289;BME280;41154;45.394;5.734;2023-06-22T10:59:25;96967.19;;;24.48;94.78
55289;BME280;41154;45.394;5.734;2023-06-22T11:01:53;96974.69;;;24.14;94.34
55289;BME280;41154;45.394;5.734;2023-06-22T11:04:18;96977.09;;;24.15;97.25
55289;BME280;41154;45.394;5.734;2023-06-22T11:06:44;96978.97;;;24.85;94.96
55289;BME280;41154;45.394;5.734;2023-06-22T11:09:10;96988.59;;;25.57;92.64
55289;BME280;41154;45.394;5.734;2023-06-22T11:11:36;96988.03;;;24.98;94.63
55289;BME280;41154;45.394;5.734;2023-06-22T11:14:02;96992.69;;;26.19;92.57
55289;BME280;41154;45.394;5.734;2023-06-22T11:16:28;96995.75;;;26.02;95.06
55289;BME280;41154;45.394;5.734;2023-06-22T11:18:53;96982.50;;;26.20;99.66
55289;BME280;41154;45.394;5.734;2023-06-22T11:21:19;96979.13;;;26.43;97.01
55289;BME280;41154;45.394;5.734;2023-06-22T11:23:45;96983.78;;;25.54;100.00
55289;BME280;41154;45.394;5.734;2023-06-22T11:26:11;96983.41;;;26.40;96.02
55289;BME280;41154;45.394;5.734;2023-06-22T11:28:36;96974.25;;;25.92;100.00
55289;BME280;41154;45.394;5.734;2023-06-22T11:31:03;96986.38;;;26.19;91.81
55289;BME280;41154;45.394;5.734;2023-06-22T11:33:29;96993.19;;;26.09;100.00
55289;BME280;41154;45.394;5.734;2023-06-22T11:35:54;96993.97;;;26.70;97.63
55289;BME280;41154;45.394;5.734;2023-06-22T11:38:21;97002.63;;;27.04;96.32
55289;BME280;41154;45.394;5.734;2023-06-22T11:40:47;97012.31;;;26.50;99.03
55289;BME280;41154;45.394;5.734;2023-06-22T11:43:13;96997.34;;;26.03;100.00
55289;BME280;41154;45.394;5.734;2023-06-22T11:45:40;96999.78;;;25.92;100.00
55289;BME280;41154;45.394;5.734;2023-06-22T11:48:06;96988.09;;;26.87;98.37
55289;BME280;41154;45.394;5.734;2023-06-22T11:50:31;96989.69;;;27.59;94.89
55289;BME280;41154;45.394;5.734;2023-06-22T11:53:02;97008.34;;;26.63;99.43
55289;BME280;41154;45.394;5.734;2023-06-22T11:55:28;97000.63;;;26.85;100.00
55289;BME280;41154;45.394;5.734;2023-06-22T11:57:55;96988.50;;;27.41;97.16
55289;BME280;41154;45.394;5.734;2023-06-22T12:00:21;96986.78;;;28.11;93.06
55289;BME280;41154;45.394;5.734;2023-06-22T12:02:50;96996.16;;;26.96;97.29
55289;BME280;41154;45.394;5.734;2023-06-22T12:05:19;96997.97;;;27.24;94.86
55289;BME280;41154;45.394;5.734;2023-06-22T12:07:48;97010.91;;;27.04;90.83
55289;BME280;41154;45.394;5.734;2023-06-22T12:10:14;97011.84;;;28.02;86.02
55289;BME280;41154;45.394;5.734;2023-06-22T12:12:41;97003.59;;;27.47;89.46
55289;BME280;41154;45.394;5.734;2023-06-22T12:15:08;97010.06;;;27.19;90.45
55289;BME280;41154;45.394;5.734;2023-06-22T12:17:34;97013.72;;;27.07;82.53
55289;BME280;41154;45.394;5.734;2023-06-22T12:20:00;97023.59;;;26.61;89.13
55289;BME280;41154;45.394;5.734;2023-06-22T12:22:26;97025.00;;;27.54;82.69
55289;BME280;41154;45.394;5.734;2023-06-22T12:24:52;97021.41;;;28.08;78.59
55289;BME280;41154;45.394;5.734;2023-06-22T12:27:18;97018.19;;;28.49;78.61
55289;BME280;41154;45.394;5.734;2023-06-22T12:29:47;97001.22;;;27.65;80.85
55289;BME280;41154;45.394;5.734;2023-06-22T12:32:14;97002.25;;;28.39;77.34
55289;BME280;41154;45.394;5.734;2023-06-22T12:34:42;96999.25;;;28.05;78.09
55289;BME280;41154;45.394;5.734;2023-06-22T12:37:08;97000.50;;;27.13;81.93
55289;BME280;41154;45.394;5.734;2023-06-22T12:39:34;96982.66;;;26.91;83.96
55289;BME280;41154;45.394;5.734;2023-06-22T12:42:00;96990.94;;;27.26;82.45
55289;BME280;41154;45.394;5.734;2023-06-22T12:44:25;96976.56;;;27.33;81.42
55289;BME280;41154;45.394;5.734;2023-06-22T12:46:51;96982.00;;;28.08;76.72
55289;BME280;41154;45.394;5.734;2023-06-22T12:49:17;96970.13;;;28.04;80.84
55289;BME280;41154;45.394;5.734;2023-06-22T12:51:43;96955.44;;;28.00;79.68
55289;BME280;41154;45.394;5.734;2023-06-22T12:54:10;96952.72;;;28.46;79.09
55289;BME280;41154;45.394;5.734;2023-06-22T12:56:36;96937.94;;;29.11;72.23
55289;BME280;41154;45.394;5.734;2023-06-22T12:59:03;96926.91;;;28.11;74.10